Volokolamsk, Russia
Current Conditions -  °F | °C
As of 4:00 AM on Sunday 26 Oct 2014 (Local Time) from UUEE Reporting Station
Clear Clear  
Wind Chill: 13°   Ceiling: Unl
Heat Index: 21°   Visibility: 6mi
Dew Point: 14°   Wind: 7mph
Humidity: 74%   Direction: 210°SSW
Pressure: 30.56"   Gusts: NA
Location:  56.03°N, 35.97°E
Report Text: UUEE 260100Z 21003MPS CAVOK M06/M10 Q1035 75000062 25000062NOSIG
Loading
Personal Weather Stations






























Interactive Weather Map
Tropical Storm Tracking
New forecast layout! Learn more

10-Day Weather Forecast

Advertisements
Track Severe Weather on mobile